createdAt,value
2022-11-16T00:01:25.453Z,31.20
2022-11-16T00:03:57.434Z,30.50
2022-11-16T00:06:28.594Z,31.80
2022-11-16T00:09:20.505Z,31.30
2022-11-16T00:11:55.594Z,29.60
2022-11-16T00:14:27.731Z,27.50
2022-11-16T00:16:58.000Z,28.10
2022-11-16T00:19:27.896Z,29.50
2022-11-16T00:21:57.435Z,30.60
2022-11-16T00:24:27.598Z,23.90
2022-11-16T00:26:56.761Z,31.00
2022-11-16T00:29:27.844Z,30.20
2022-11-16T00:31:57.739Z,31.20
2022-11-16T00:34:28.431Z,30.60
2022-11-16T00:36:58.703Z,34.90
2022-11-16T00:39:29.402Z,29.10
2022-11-16T00:41:59.397Z,29.30
2022-11-16T00:44:30.235Z,29.40
2022-11-16T00:46:59.774Z,24.60
2022-11-16T00:49:30.063Z,23.00
2022-11-16T00:54:29.128Z,28.20
2022-11-16T00:56:58.990Z,27.90
2022-11-16T00:59:29.062Z,32.20
2022-11-16T01:02:01.188Z,31.40
2022-11-16T01:04:33.602Z,29.70
2022-11-16T01:07:03.204Z,30.60
2022-11-16T01:09:34.605Z,30.00
2022-11-16T01:12:10.070Z,32.20
2022-11-16T01:14:43.964Z,28.60
2022-11-16T01:17:15.131Z,23.30
2022-11-16T01:19:45.761Z,28.60
2022-11-16T01:22:15.786Z,30.10
2022-11-16T01:24:47.567Z,27.70
2022-11-16T01:27:18.055Z,29.10
2022-11-16T01:29:48.928Z,28.60
2022-11-16T01:32:20.158Z,25.80
2022-11-16T01:34:50.414Z,28.70
2022-11-16T01:37:30.543Z,29.70
2022-11-16T01:42:31.960Z,30.70
2022-11-16T01:45:11.411Z,28.50
2022-11-16T01:47:41.300Z,23.50
2022-11-16T01:50:16.471Z,24.20
2022-11-16T01:52:58.082Z,26.00
2022-11-16T01:55:33.621Z,27.40
2022-11-16T01:58:25.883Z,29.30
2022-11-16T02:01:05.656Z,27.60
2022-11-16T02:03:45.841Z,27.10
2022-11-16T02:06:28.090Z,29.10
2022-11-16T02:09:51.922Z,29.20
2022-11-16T02:12:51.942Z,33.20
2022-11-16T02:15:24.208Z,24.50
2022-11-16T02:18:26.556Z,26.80
2022-11-16T02:21:30.523Z,25.50
2022-11-16T02:24:10.356Z,32.10
2022-11-16T02:26:42.158Z,27.90
2022-11-16T02:29:22.163Z,35.00
2022-11-16T02:32:06.973Z,28.80
2022-11-16T02:35:09.639Z,30.00
2022-11-16T02:37:45.442Z,30.10
2022-11-16T02:40:18.335Z,32.10
2022-11-16T02:42:55.202Z,34.00
2022-11-16T02:45:29.835Z,30.50
2022-11-16T02:48:06.854Z,34.30
2022-11-16T02:50:38.966Z,29.90
2022-11-16T02:53:08.592Z,27.60
2022-11-16T02:55:39.263Z,31.30
2022-11-16T02:58:12.862Z,28.70
2022-11-16T03:00:49.360Z,33.80
2022-11-16T03:03:32.634Z,30.80
2022-11-16T03:06:33.788Z,26.90
2022-11-16T03:09:16.776Z,31.50
2022-11-16T03:12:03.751Z,30.30
2022-11-16T03:15:09.893Z,27.40
2022-11-16T03:17:44.911Z,23.50
2022-11-16T03:20:22.839Z,27.80
2022-11-16T03:23:07.103Z,24.40
2022-11-16T03:26:06.846Z,30.80
2022-11-16T03:28:53.289Z,27.70
2022-11-16T03:31:30.440Z,36.40
2022-11-16T03:34:05.365Z,32.00
2022-11-16T03:36:39.131Z,34.40
2022-11-16T03:39:18.191Z,32.90
2022-11-16T03:41:50.136Z,31.50
2022-11-16T03:44:21.731Z,37.90
2022-11-16T03:46:51.012Z,33.80
2022-11-16T03:49:24.449Z,34.10
2022-11-16T03:51:55.030Z,40.00
2022-11-16T03:56:54.765Z,25.70
2022-11-16T03:59:24.821Z,30.80
2022-11-16T04:01:53.790Z,31.60
2022-11-16T04:04:42.697Z,37.90
2022-11-16T04:07:31.045Z,30.60
2022-11-16T04:10:19.227Z,25.30
2022-11-16T04:13:07.922Z,27.20
2022-11-16T04:15:56.539Z,33.10
2022-11-16T04:18:44.571Z,32.40
2022-11-16T04:21:47.156Z,18.00
2022-11-16T04:24:24.029Z,32.00
2022-11-16T04:27:20.054Z,26.70
2022-11-16T04:29:49.296Z,26.50
2022-11-16T04:32:36.772Z,27.90
2022-11-16T04:35:24.620Z,25.00
2022-11-16T04:37:57.234Z,31.10
2022-11-16T04:40:30.897Z,29.70
2022-11-16T04:43:02.265Z,33.00
2022-11-16T04:45:54.379Z,30.70
2022-11-16T04:48:26.617Z,39.80
2022-11-16T04:50:56.683Z,33.70
2022-11-16T04:53:28.433Z,27.80
2022-11-16T04:56:04.820Z,28.30
2022-11-16T04:58:34.818Z,27.30
2022-11-16T05:01:04.864Z,32.30
2022-11-16T05:03:36.060Z,34.80
2022-11-16T05:06:05.672Z,39.80
2022-11-16T05:08:35.229Z,31.20
2022-11-16T05:11:05.393Z,29.90
2022-11-16T05:13:34.382Z,35.40
2022-11-16T05:16:04.619Z,31.90
2022-11-16T05:18:34.568Z,31.90
2022-11-16T05:21:05.132Z,33.20
2022-11-16T05:23:58.123Z,30.60
2022-11-16T05:26:30.928Z,29.30
2022-11-16T05:28:59.789Z,29.80
2022-11-16T05:31:28.570Z,30.40
2022-11-16T05:33:57.317Z,24.50
2022-11-16T05:36:26.859Z,27.10
2022-11-16T05:38:56.479Z,37.10
2022-11-16T05:41:26.998Z,32.00
2022-11-16T05:43:56.609Z,36.10
2022-11-16T05:46:26.348Z,36.90
2022-11-16T05:48:57.155Z,40.00
2022-11-16T05:51:27.162Z,40.60
2022-11-16T05:56:25.179Z,28.40
2022-11-16T05:58:54.648Z,30.80
2022-11-16T06:01:23.561Z,40.10
2022-11-16T06:03:53.559Z,38.00
2022-11-16T06:06:22.147Z,34.30
2022-11-16T06:08:51.348Z,37.50
2022-11-16T06:11:24.633Z,37.60
2022-11-16T06:13:53.836Z,42.30
2022-11-16T06:16:22.623Z,35.90
2022-11-16T06:18:51.371Z,36.70
2022-11-16T06:21:21.324Z,35.60
2022-11-16T06:23:50.941Z,33.40
2022-11-16T06:26:20.331Z,31.70
2022-11-16T06:28:50.452Z,32.30
2022-11-16T06:31:19.340Z,29.40
2022-11-16T06:33:48.345Z,35.30
2022-11-16T06:36:26.742Z,35.00
2022-11-16T06:38:55.535Z,38.60
2022-11-16T06:41:24.735Z,37.10
2022-11-16T06:43:54.656Z,39.60
2022-11-16T06:46:26.604Z,34.80
2022-11-16T06:48:57.240Z,34.10
2022-11-16T06:51:26.376Z,31.70
2022-11-16T06:53:55.115Z,33.00
2022-11-16T06:56:24.222Z,29.70
2022-11-16T06:58:57.524Z,44.40
2022-11-16T07:01:27.700Z,33.90
2022-11-16T07:04:01.238Z,32.60
2022-11-16T07:06:30.681Z,45.70
2022-11-16T07:08:59.488Z,30.60
2022-11-16T07:11:31.082Z,28.10
2022-11-16T07:14:00.070Z,34.20
2022-11-16T07:16:30.236Z,32.20
2022-11-16T07:19:02.270Z,29.00
2022-11-16T07:24:01.873Z,34.60
2022-11-16T07:26:33.323Z,32.70
2022-11-16T07:29:07.765Z,42.00
2022-11-16T07:31:37.253Z,34.90
2022-11-16T07:34:24.291Z,40.50
2022-11-16T07:37:05.754Z,38.80
2022-11-16T07:39:34.901Z,34.50
2022-11-16T07:42:11.892Z,29.10
2022-11-16T07:44:53.822Z,31.00
2022-11-16T07:47:22.524Z,36.80
2022-11-16T07:49:51.807Z,32.40
2022-11-16T07:52:22.746Z,32.00
2022-11-16T07:55:05.938Z,34.70
2022-11-16T07:57:35.459Z,39.20
2022-11-16T08:00:08.883Z,33.80
2022-11-16T08:02:45.857Z,35.70
2022-11-16T08:05:19.352Z,30.80
2022-11-16T08:07:50.083Z,34.30
2022-11-16T08:10:21.961Z,32.80
2022-11-16T08:12:50.946Z,39.60
2022-11-16T08:15:20.548Z,31.80
2022-11-16T08:17:49.231Z,33.60
2022-11-16T08:20:19.047Z,30.70
2022-11-16T08:22:50.187Z,29.00
2022-11-16T08:25:20.000Z,21.00
2022-11-16T08:27:49.915Z,29.30
2022-11-16T08:30:19.615Z,26.60
2022-11-16T08:32:48.510Z,24.20
2022-11-16T08:35:17.551Z,24.20
2022-11-16T08:37:47.009Z,29.40
2022-11-16T08:40:16.310Z,27.70
2022-11-16T08:42:45.006Z,28.80
2022-11-16T08:45:14.085Z,30.60
2022-11-16T08:47:43.696Z,30.80
2022-11-16T08:50:12.397Z,30.40
2022-11-16T08:52:41.275Z,29.50
2022-11-16T08:55:10.823Z,30.00
2022-11-16T08:57:41.129Z,30.00
2022-11-16T09:00:12.888Z,27.00
2022-11-16T09:05:12.420Z,28.00
2022-11-16T09:07:44.336Z,29.20
2022-11-16T09:10:21.630Z,25.20
2022-11-16T09:12:50.791Z,30.40
2022-11-16T09:15:21.067Z,27.10
2022-11-16T09:20:19.032Z,25.20
2022-11-16T09:22:47.660Z,21.50
2022-11-16T09:25:16.403Z,20.80
2022-11-16T09:27:44.899Z,22.20
2022-11-16T09:30:14.085Z,19.90
2022-11-16T09:32:42.632Z,19.60
2022-11-16T09:35:11.367Z,21.40
2022-11-16T09:37:40.134Z,24.80
2022-11-16T09:40:12.411Z,22.90
2022-11-16T09:43:02.298Z,22.60
2022-11-16T09:48:06.559Z,24.40
2022-11-16T09:50:35.110Z,22.70
2022-11-16T09:53:18.329Z,22.10
2022-11-16T09:56:05.146Z,32.30
2022-11-16T09:58:51.862Z,33.60
2022-11-16T10:01:41.745Z,30.90
2022-11-16T10:04:16.667Z,26.10
2022-11-16T10:06:53.611Z,23.60
2022-11-16T10:09:25.298Z,25.70
2022-11-16T10:12:12.313Z,24.60
2022-11-16T10:15:15.814Z,24.00
2022-11-16T10:18:00.276Z,21.90
2022-11-16T10:20:48.410Z,21.50
2022-11-16T10:23:35.493Z,23.00
2022-11-16T10:26:22.649Z,24.50
2022-11-16T10:28:57.594Z,24.10
2022-11-16T10:31:51.773Z,23.50
2022-11-16T10:34:26.383Z,22.40
2022-11-16T10:37:03.571Z,22.40
2022-11-16T10:39:34.468Z,23.60
2022-11-16T10:42:10.571Z,21.70
2022-11-16T10:44:44.842Z,20.90
2022-11-16T10:47:51.477Z,21.70
2022-11-16T10:50:37.757Z,21.40
2022-11-16T10:53:06.452Z,21.40
2022-11-16T10:55:35.536Z,18.90
2022-11-16T10:58:08.126Z,20.40
2022-11-16T11:00:41.777Z,18.10
2022-11-16T11:03:12.183Z,18.50
2022-11-16T11:06:11.349Z,21.60
2022-11-16T11:08:40.339Z,21.30
2022-11-16T11:11:40.456Z,23.10
2022-11-16T11:16:43.360Z,22.00
2022-11-16T11:19:32.114Z,23.60
2022-11-16T11:22:01.425Z,24.60
2022-11-16T11:24:45.850Z,21.00
2022-11-16T11:27:23.390Z,22.50
2022-11-16T11:29:55.462Z,20.80
2022-11-16T11:32:32.304Z,20.50
2022-11-16T11:35:03.099Z,21.60
2022-11-16T11:37:37.562Z,20.60
2022-11-16T11:40:28.875Z,19.80
2022-11-16T11:43:03.906Z,18.90
2022-11-16T11:45:47.384Z,18.60
2022-11-16T11:48:27.456Z,21.90
2022-11-16T11:51:15.738Z,19.00
2022-11-16T11:53:53.437Z,18.70
2022-11-16T11:56:23.363Z,19.10
2022-11-16T11:58:54.696Z,17.50
2022-11-16T12:04:13.363Z,17.80
2022-11-16T12:07:00.972Z,16.10
2022-11-16T12:09:57.845Z,18.80
2022-11-16T12:12:43.936Z,16.80
2022-11-16T12:15:38.118Z,17.30
2022-11-16T12:18:23.701Z,18.50
2022-11-16T12:21:23.206Z,18.80
2022-11-16T12:24:33.686Z,16.30
2022-11-16T12:27:40.149Z,17.90
2022-11-16T12:30:27.672Z,20.50
2022-11-16T12:33:22.980Z,17.80
2022-11-16T12:36:04.265Z,20.20
2022-11-16T12:39:01.309Z,20.90
2022-11-16T12:41:42.489Z,21.20
2022-11-16T12:44:13.121Z,19.90
2022-11-16T12:47:10.791Z,17.50
2022-11-16T12:50:08.760Z,21.70
2022-11-16T12:52:51.269Z,20.20
2022-11-16T12:56:09.428Z,21.30
2022-11-16T12:59:02.878Z,21.80
2022-11-16T13:01:41.495Z,22.50
2022-11-16T13:04:16.629Z,22.30
2022-11-16T13:07:11.415Z,21.00
2022-11-16T13:09:53.630Z,21.00
2022-11-16T13:12:24.572Z,22.90
2022-11-16T13:15:00.440Z,18.90
2022-11-16T13:17:33.161Z,18.10
2022-11-16T13:20:17.154Z,20.60
2022-11-16T13:23:02.841Z,20.50
2022-11-16T13:25:45.954Z,22.30
2022-11-16T13:28:33.451Z,20.40
2022-11-16T13:31:08.620Z,18.70
2022-11-16T13:33:51.264Z,20.60
2022-11-16T13:36:58.831Z,21.70
2022-11-16T13:39:58.438Z,20.50
2022-11-16T13:42:32.446Z,20.10
2022-11-16T13:45:16.492Z,18.90
2022-11-16T13:48:16.798Z,21.30
2022-11-16T13:56:16.277Z,19.70
2022-11-16T13:58:48.096Z,19.30
2022-11-16T14:01:19.192Z,20.40
2022-11-16T14:03:52.751Z,17.70
2022-11-16T14:06:24.731Z,19.40
2022-11-16T14:08:55.297Z,20.70
2022-11-16T14:11:33.158Z,18.20
2022-11-16T14:14:43.616Z,21.00
2022-11-16T14:17:51.224Z,19.80
2022-11-16T14:20:35.059Z,23.30
2022-11-16T14:23:16.644Z,23.20
2022-11-16T14:26:16.256Z,28.50
2022-11-16T14:28:56.931Z,35.10
2022-11-16T14:31:31.248Z,24.70
2022-11-16T14:34:01.162Z,22.20
2022-11-16T14:36:42.648Z,19.30
2022-11-16T14:39:31.811Z,18.30
2022-11-16T14:42:17.796Z,19.90
2022-11-16T14:44:50.089Z,21.10
2022-11-16T14:47:30.941Z,22.30
2022-11-16T14:49:59.723Z,21.60
2022-11-16T14:52:44.292Z,22.50
2022-11-16T14:55:24.952Z,21.50
2022-11-16T14:58:09.512Z,21.10
2022-11-16T15:00:38.907Z,21.00
2022-11-16T15:03:12.291Z,21.40
2022-11-16T15:05:41.098Z,22.90
2022-11-16T15:08:21.451Z,23.40
2022-11-16T15:10:52.573Z,24.50
2022-11-16T15:13:24.457Z,26.20
2022-11-16T15:16:10.973Z,24.10
2022-11-16T15:18:39.649Z,24.30
2022-11-16T15:21:22.643Z,24.80
2022-11-16T15:24:15.420Z,24.40
2022-11-16T15:26:40.413Z,26.20
2022-11-16T15:29:16.952Z,26.30
2022-11-16T15:31:46.448Z,29.30
2022-11-16T15:34:20.237Z,28.50
2022-11-16T15:36:49.493Z,29.70
2022-11-16T15:39:29.032Z,30.90
2022-11-16T15:42:03.238Z,32.80
2022-11-16T15:44:34.798Z,28.80
2022-11-16T15:47:04.480Z,35.40
2022-11-16T15:49:39.475Z,33.00
2022-11-16T15:52:08.133Z,30.70
2022-11-16T15:54:55.959Z,26.30
2022-11-16T15:57:25.465Z,39.60
2022-11-16T15:59:57.269Z,40.20
2022-11-16T16:02:29.212Z,40.50
2022-11-16T16:04:57.977Z,42.60
2022-11-16T16:07:40.382Z,44.40
2022-11-16T16:10:18.086Z,41.80
2022-11-16T16:12:58.125Z,48.50
2022-11-16T16:18:11.787Z,45.30
2022-11-16T16:20:47.638Z,46.00
2022-11-16T16:23:25.229Z,51.00
2022-11-16T16:25:53.811Z,39.60
2022-11-16T16:28:22.708Z,52.30
2022-11-16T16:30:51.493Z,41.70
2022-11-16T16:33:22.231Z,43.70
2022-11-16T16:35:51.318Z,45.20
2022-11-16T16:38:20.004Z,48.40
2022-11-16T16:40:48.791Z,44.80
2022-11-16T16:43:17.692Z,48.00
2022-11-16T16:45:46.779Z,41.30
2022-11-16T16:48:15.361Z,38.10
2022-11-16T16:50:44.150Z,37.10
2022-11-16T16:53:14.408Z,38.60
2022-11-16T16:55:44.283Z,38.00
2022-11-16T16:58:14.613Z,38.90
2022-11-16T17:00:43.546Z,39.00
2022-11-16T17:03:12.486Z,38.50
2022-11-16T17:05:41.181Z,38.50
2022-11-16T17:08:10.371Z,39.30
2022-11-16T17:10:39.695Z,40.60
2022-11-16T17:13:10.406Z,38.80
2022-11-16T17:15:38.993Z,39.90
2022-11-16T17:18:07.677Z,40.10
2022-11-16T17:20:37.505Z,34.50
2022-11-16T17:23:06.171Z,38.10
2022-11-16T17:25:35.165Z,34.60
2022-11-16T17:28:04.258Z,42.20
2022-11-16T17:30:32.946Z,39.90
2022-11-16T17:33:01.426Z,42.80
2022-11-16T17:35:30.213Z,37.70
2022-11-16T17:37:59.110Z,38.70
2022-11-16T17:40:27.689Z,38.20
2022-11-16T17:42:56.884Z,36.40
2022-11-16T17:45:25.480Z,37.80
2022-11-16T17:47:54.768Z,36.30
2022-11-16T17:50:23.252Z,35.60
2022-11-16T17:52:51.729Z,30.00
2022-11-16T17:55:20.311Z,24.50
2022-11-16T17:57:50.227Z,31.90
2022-11-16T18:00:19.317Z,34.10
2022-11-16T18:02:47.702Z,25.70
2022-11-16T18:05:16.282Z,26.50
2022-11-16T18:07:44.767Z,24.10
2022-11-16T18:10:18.895Z,28.20
2022-11-16T18:12:47.869Z,29.60
2022-11-16T18:15:32.111Z,27.00
2022-11-16T18:18:01.318Z,24.40
2022-11-16T18:20:30.207Z,27.90
2022-11-16T18:22:58.587Z,30.90
2022-11-16T18:25:27.169Z,28.20
2022-11-16T18:27:56.469Z,29.10
2022-11-16T18:30:25.055Z,25.90
2022-11-16T18:32:53.737Z,30.00
2022-11-16T18:35:22.321Z,26.40
2022-11-16T18:37:50.805Z,24.40
2022-11-16T18:40:20.107Z,26.70
2022-11-16T18:42:48.890Z,21.70
2022-11-16T18:45:17.378Z,25.20
2022-11-16T18:47:46.564Z,31.10
2022-11-16T18:50:21.323Z,32.00
2022-11-16T18:52:52.848Z,26.10
2022-11-16T18:55:21.428Z,24.60
2022-11-16T18:57:50.112Z,22.20
2022-11-16T19:00:19.727Z,22.80
2022-11-16T19:02:48.073Z,22.90
2022-11-16T19:05:16.678Z,30.40
2022-11-16T19:07:45.206Z,27.50
2022-11-16T19:10:14.709Z,50.30
2022-11-16T19:12:43.083Z,24.80
2022-11-16T19:15:11.520Z,21.20
2022-11-16T19:17:59.288Z,21.50
2022-11-16T19:20:28.865Z,25.90
2022-11-16T19:22:57.754Z,21.10
2022-11-16T19:25:26.903Z,24.10
2022-11-16T19:27:55.745Z,22.90
2022-11-16T19:30:24.223Z,37.20
2022-11-16T19:32:59.568Z,32.10
2022-11-16T19:35:28.560Z,19.80
2022-11-16T19:37:57.607Z,17.80
2022-11-16T19:40:26.135Z,18.60
2022-11-16T19:42:54.817Z,18.10
2022-11-16T19:45:23.400Z,17.20
2022-11-16T19:47:51.856Z,17.30
2022-11-16T19:50:20.273Z,19.30
2022-11-16T19:52:48.650Z,15.50
2022-11-16T19:55:17.005Z,17.40
2022-11-16T19:57:45.465Z,15.70
2022-11-16T20:00:15.205Z,16.10
2022-11-16T20:02:43.892Z,15.90
2022-11-16T20:05:12.479Z,18.00
2022-11-16T20:07:41.094Z,17.20
2022-11-16T20:10:10.255Z,20.80
2022-11-16T20:12:38.759Z,20.50
2022-11-16T20:15:07.845Z,19.50
2022-11-16T20:17:36.308Z,19.50
2022-11-16T20:20:05.405Z,18.90
2022-11-16T20:22:33.996Z,18.50
2022-11-16T20:25:02.778Z,17.50
2022-11-16T20:27:31.269Z,17.20
2022-11-16T20:30:02.646Z,21.00
2022-11-16T20:32:34.156Z,19.30
2022-11-16T20:35:02.741Z,17.40
2022-11-16T20:37:31.189Z,19.20
2022-11-16T20:39:59.591Z,18.10
2022-11-16T20:42:28.081Z,18.60
2022-11-16T20:44:57.788Z,20.80
2022-11-16T20:47:26.267Z,18.60
2022-11-16T20:49:54.957Z,17.00
2022-11-16T20:52:23.618Z,16.40
2022-11-16T20:54:52.227Z,15.50
2022-11-16T20:57:21.019Z,16.60
2022-11-16T20:59:49.806Z,19.70
2022-11-16T21:02:18.272Z,21.10
2022-11-16T21:04:46.865Z,22.20
2022-11-16T21:07:16.144Z,20.90
2022-11-16T21:10:05.024Z,21.20
2022-11-16T21:12:52.449Z,19.20
2022-11-16T21:15:20.930Z,18.90
2022-11-16T21:17:49.511Z,20.20
2022-11-16T21:20:27.465Z,20.70
2022-11-16T21:22:56.817Z,19.40
2022-11-16T21:25:25.382Z,20.30
2022-11-16T21:27:55.214Z,19.50
2022-11-16T21:30:23.902Z,18.60
2022-11-16T21:32:52.693Z,18.80
2022-11-16T21:35:21.407Z,16.20
2022-11-16T21:37:49.958Z,14.60
2022-11-16T21:40:18.943Z,16.90
2022-11-16T21:42:48.044Z,17.70
2022-11-16T21:45:16.932Z,15.90
2022-11-16T21:47:45.721Z,17.00
2022-11-16T21:50:31.599Z,16.20
2022-11-16T21:53:01.218Z,15.40
2022-11-16T21:55:30.620Z,15.90
2022-11-16T21:58:00.148Z,14.80
2022-11-16T22:00:29.122Z,15.70
2022-11-16T22:02:58.115Z,16.50
2022-11-16T22:05:55.573Z,15.60
2022-11-16T22:08:24.320Z,15.30
2022-11-16T22:10:54.482Z,16.50
2022-11-16T22:13:23.176Z,13.70
2022-11-16T22:15:51.744Z,16.40
2022-11-16T22:18:20.439Z,15.40
2022-11-16T22:20:50.137Z,16.50
2022-11-16T22:23:22.831Z,16.20
2022-11-16T22:25:53.043Z,13.60
2022-11-16T22:28:22.453Z,14.30
2022-11-16T22:30:59.729Z,15.00
2022-11-16T22:33:30.207Z,16.70
2022-11-16T22:35:59.583Z,15.00
2022-11-16T22:38:28.760Z,17.10
2022-11-16T22:40:58.477Z,15.20
2022-11-16T22:43:29.507Z,17.70
2022-11-16T22:46:00.141Z,16.90
2022-11-16T22:48:38.231Z,16.70
2022-11-16T22:51:19.944Z,15.20
2022-11-16T22:53:52.917Z,15.60
2022-11-16T22:56:21.812Z,15.50
2022-11-16T22:58:51.228Z,15.80
2022-11-16T23:01:20.848Z,15.30
2022-11-16T23:03:50.221Z,15.60
2022-11-16T23:06:19.563Z,15.20
2022-11-16T23:08:48.687Z,15.30
2022-11-16T23:11:38.719Z,16.50
2022-11-16T23:16:59.120Z,15.60
2022-11-16T23:19:47.376Z,14.30
2022-11-16T23:22:39.615Z,14.40
2022-11-16T23:25:30.613Z,14.40
2022-11-16T23:28:10.617Z,15.30
2022-11-16T23:30:40.684Z,15.40
2022-11-16T23:33:10.953Z,12.60
2022-11-16T23:35:41.029Z,13.00
2022-11-16T23:40:41.717Z,18.80
2022-11-16T23:43:30.705Z,15.60
2022-11-16T23:46:00.146Z,21.60
2022-11-16T23:48:30.045Z,18.10
2022-11-16T23:50:59.498Z,19.80
2022-11-16T23:53:28.653Z,19.60
2022-11-16T23:56:06.022Z,19.90
2022-11-16T23:58:36.581Z,17.80
